sensor_id;sensor_type;location;lat;lon;timestamp;temperature;humidity
22235;DHT22;11286;45.596;5.284;2022-12-19T00:03:27;7.40;99.90
22235;DHT22;11286;45.596;5.284;2022-12-19T00:05:53;7.60;99.90
22235;DHT22;11286;45.596;5.284;2022-12-19T00:08:18;7.50;99.90
22235;DHT22;11286;45.596;5.284;2022-12-19T00:10:58;8.20;99.90
22235;DHT22;11286;45.596;5.284;2022-12-19T00:13:24;8.60;99.90
22235;DHT22;11286;45.596;5.284;2022-12-19T00:15:50;8.50;99.90
22235;DHT22;11286;45.596;5.284;2022-12-19T00:18:16;9.00;99.90
22235;DHT22;11286;45.596;5.284;2022-12-19T00:20:41;9.20;99.90
22235;DHT22;11286;45.596;5.284;2022-12-19T00:23:07;9.10;99.90
22235;DHT22;11286;45.596;5.284;2022-12-19T00:25:32;9.20;99.90
22235;DHT22;11286;45.596;5.284;2022-12-19T00:27:58;9.60;99.90
22235;DHT22;11286;45.596;5.284;2022-12-19T00:30:24;9.60;99.90
22235;DHT22;11286;45.596;5.284;2022-12-19T00:32:49;10.10;99.90
22235;DHT22;11286;45.596;5.284;2022-12-19T00:35:15;10.10;99.90
22235;DHT22;11286;45.596;5.284;2022-12-19T00:37:41;9.60;99.90
22235;DHT22;11286;45.596;5.284;2022-12-19T00:40:07;9.60;99.90
22235;DHT22;11286;45.596;5.284;2022-12-19T00:42:33;9.60;99.90
22235;DHT22;11286;45.596;5.284;2022-12-19T00:44:59;9.60;99.90
22235;DHT22;11286;45.596;5.284;2022-12-19T00:47:24;9.50;99.90
22235;DHT22;11286;45.596;5.284;2022-12-19T00:49:50;9.60;99.90
22235;DHT22;11286;45.596;5.284;2022-12-19T00:52:16;10.10;99.90
22235;DHT22;11286;45.596;5.284;2022-12-19T00:54:41;9.70;99.90
22235;DHT22;11286;45.596;5.284;2022-12-19T00:57:07;9.70;99.90
22235;DHT22;11286;45.596;5.284;2022-12-19T00:59:32;10.00;99.90
22235;DHT22;11286;45.596;5.284;2022-12-19T01:01:58;10.50;99.90
22235;DHT22;11286;45.596;5.284;2022-12-19T01:04:24;10.50;99.90
22235;DHT22;11286;45.596;5.284;2022-12-19T01:06:49;10.40;99.90
22235;DHT22;11286;45.596;5.284;2022-12-19T01:09:15;10.80;99.90
22235;DHT22;11286;45.596;5.284;2022-12-19T01:11:41;10.70;99.90
22235;DHT22;11286;45.596;5.284;2022-12-19T01:14:25;10.80;99.90
22235;DHT22;11286;45.596;5.284;2022-12-19T01:16:51;11.00;99.90
22235;DHT22;11286;45.596;5.284;2022-12-19T01:19:16;10.80;99.90
22235;DHT22;11286;45.596;5.284;2022-12-19T01:21:42;11.00;99.90
22235;DHT22;11286;45.596;5.284;2022-12-19T01:24:08;11.00;99.90
22235;DHT22;11286;45.596;5.284;2022-12-19T01:26:33;10.80;99.90
22235;DHT22;11286;45.596;5.284;2022-12-19T01:28:59;10.90;99.90
22235;DHT22;11286;45.596;5.284;2022-12-19T01:31:25;10.90;99.90
22235;DHT22;11286;45.596;5.284;2022-12-19T01:33:50;11.00;99.90
22235;DHT22;11286;45.596;5.284;2022-12-19T01:36:16;11.10;99.90
22235;DHT22;11286;45.596;5.284;2022-12-19T01:38:41;11.10;99.90
22235;DHT22;11286;45.596;5.284;2022-12-19T01:41:07;11.00;99.90
22235;DHT22;11286;45.596;5.284;2022-12-19T01:43:57;11.00;99.90
22235;DHT22;11286;45.596;5.284;2022-12-19T01:46:31;11.00;99.90
22235;DHT22;11286;45.596;5.284;2022-12-19T01:48:58;11.00;99.90
22235;DHT22;11286;45.596;5.284;2022-12-19T01:51:33;10.90;99.90
22235;DHT22;11286;45.596;5.284;2022-12-19T01:54:02;10.90;99.90
22235;DHT22;11286;45.596;5.284;2022-12-19T01:56:32;10.90;99.90
22235;DHT22;11286;45.596;5.284;2022-12-19T01:59:03;10.80;99.90
22235;DHT22;11286;45.596;5.284;2022-12-19T02:01:29;10.90;99.90
22235;DHT22;11286;45.596;5.284;2022-12-19T02:03:56;10.80;99.90
22235;DHT22;11286;45.596;5.284;2022-12-19T02:06:24;11.10;99.90
22235;DHT22;11286;45.596;5.284;2022-12-19T02:08:51;10.70;99.90
22235;DHT22;11286;45.596;5.284;2022-12-19T02:11:17;10.80;99.90
22235;DHT22;11286;45.596;5.284;2022-12-19T02:13:44;10.70;99.90
22235;DHT22;11286;45.596;5.284;2022-12-19T02:16:25;10.70;99.90
22235;DHT22;11286;45.596;5.284;2022-12-19T02:19:18;10.70;99.90
22235;DHT22;11286;45.596;5.284;2022-12-19T02:24:26;10.50;99.90
22235;DHT22;11286;45.596;5.284;2022-12-19T02:32:05;10.50;99.90
22235;DHT22;11286;45.596;5.284;2022-12-19T02:34:52;10.30;99.90
22235;DHT22;11286;45.596;5.284;2022-12-19T02:37:25;10.20;99.90
22235;DHT22;11286;45.596;5.284;2022-12-19T02:42:27;10.20;99.90
22235;DHT22;11286;45.596;5.284;2022-12-19T02:44:54;10.10;99.90
22235;DHT22;11286;45.596;5.284;2022-12-19T02:47:21;10.10;99.90
22235;DHT22;11286;45.596;5.284;2022-12-19T02:49:47;10.30;99.90
22235;DHT22;11286;45.596;5.284;2022-12-19T02:54:49;10.30;99.90
22235;DHT22;11286;45.596;5.284;2022-12-19T03:00:20;9.90;99.90
22235;DHT22;11286;45.596;5.284;2022-12-19T03:06:07;9.70;99.90
22235;DHT22;11286;45.596;5.284;2022-12-19T03:11:11;9.90;99.90
22235;DHT22;11286;45.596;5.284;2022-12-19T03:14:03;9.70;99.90
22235;DHT22;11286;45.596;5.284;2022-12-19T03:16:30;9.80;99.90
22235;DHT22;11286;45.596;5.284;2022-12-19T03:18:58;9.80;99.90
22235;DHT22;11286;45.596;5.284;2022-12-19T03:21:45;10.00;99.90
22235;DHT22;11286;45.596;5.284;2022-12-19T03:24:11;10.00;99.90
22235;DHT22;11286;45.596;5.284;2022-12-19T03:26:40;9.90;99.90
22235;DHT22;11286;45.596;5.284;2022-12-19T03:29:18;9.90;99.90
22235;DHT22;11286;45.596;5.284;2022-12-19T03:31:46;10.00;99.90
22235;DHT22;11286;45.596;5.284;2022-12-19T03:34:30;10.00;99.90
22235;DHT22;11286;45.596;5.284;2022-12-19T03:37:00;9.90;99.90
22235;DHT22;11286;45.596;5.284;2022-12-19T03:39:28;10.00;99.90
22235;DHT22;11286;45.596;5.284;2022-12-19T03:41:55;10.40;99.90
22235;DHT22;11286;45.596;5.284;2022-12-19T03:44:41;9.90;99.90
22235;DHT22;11286;45.596;5.284;2022-12-19T03:49:42;10.00;99.90
22235;DHT22;11286;45.596;5.284;2022-12-19T03:52:15;10.10;99.90
22235;DHT22;11286;45.596;5.284;2022-12-19T03:54:53;10.10;99.90
22235;DHT22;11286;45.596;5.284;2022-12-19T03:57:25;10.10;99.90
22235;DHT22;11286;45.596;5.284;2022-12-19T04:02:25;9.90;99.90
22235;DHT22;11286;45.596;5.284;2022-12-19T04:04:58;10.20;99.90
22235;DHT22;11286;45.596;5.284;2022-12-19T04:07:25;9.90;99.90
22235;DHT22;11286;45.596;5.284;2022-12-19T04:09:52;9.90;99.90
22235;DHT22;11286;45.596;5.284;2022-12-19T04:12:26;10.30;99.90
22235;DHT22;11286;45.596;5.284;2022-12-19T04:14:55;10.40;99.90
22235;DHT22;11286;45.596;5.284;2022-12-19T04:17:34;10.20;99.90
22235;DHT22;11286;45.596;5.284;2022-12-19T04:20:10;10.10;99.90
22235;DHT22;11286;45.596;5.284;2022-12-19T04:25:20;10.60;99.90
22235;DHT22;11286;45.596;5.284;2022-12-19T04:27:51;10.60;99.90
22235;DHT22;11286;45.596;5.284;2022-12-19T04:30:18;10.50;99.90
22235;DHT22;11286;45.596;5.284;2022-12-19T04:32:45;10.80;99.90
22235;DHT22;11286;45.596;5.284;2022-12-19T04:35:12;10.80;99.90
22235;DHT22;11286;45.596;5.284;2022-12-19T04:37:38;10.90;99.90
22235;DHT22;11286;45.596;5.284;2022-12-19T04:40:05;10.90;99.90
22235;DHT22;11286;45.596;5.284;2022-12-19T04:42:32;11.00;99.90
22235;DHT22;11286;45.596;5.284;2022-12-19T04:44:58;11.00;99.90
22235;DHT22;11286;45.596;5.284;2022-12-19T04:47:23;10.70;99.90
22235;DHT22;11286;45.596;5.284;2022-12-19T04:49:49;10.80;99.90
22235;DHT22;11286;45.596;5.284;2022-12-19T04:52:15;10.80;99.90
22235;DHT22;11286;45.596;5.284;2022-12-19T04:54:40;10.60;99.90
22235;DHT22;11286;45.596;5.284;2022-12-19T04:57:06;10.40;99.90
22235;DHT22;11286;45.596;5.284;2022-12-19T04:59:32;10.50;99.90
22235;DHT22;11286;45.596;5.284;2022-12-19T05:01:57;10.40;99.90
22235;DHT22;11286;45.596;5.284;2022-12-19T05:04:23;10.40;99.90
22235;DHT22;11286;45.596;5.284;2022-12-19T05:06:48;10.30;99.90
22235;DHT22;11286;45.596;5.284;2022-12-19T05:09:14;10.20;99.90
22235;DHT22;11286;45.596;5.284;2022-12-19T05:11:40;10.10;99.90
22235;DHT22;11286;45.596;5.284;2022-12-19T05:14:06;10.10;99.90
22235;DHT22;11286;45.596;5.284;2022-12-19T05:16:31;10.10;99.90
22235;DHT22;11286;45.596;5.284;2022-12-19T05:18:57;10.00;99.90
22235;DHT22;11286;45.596;5.284;2022-12-19T05:21:23;10.00;99.90
22235;DHT22;11286;45.596;5.284;2022-12-19T05:23:49;9.90;99.90
22235;DHT22;11286;45.596;5.284;2022-12-19T05:26:15;9.90;99.90
22235;DHT22;11286;45.596;5.284;2022-12-19T05:28:41;10.00;99.90
22235;DHT22;11286;45.596;5.284;2022-12-19T05:31:11;9.90;99.90
22235;DHT22;11286;45.596;5.284;2022-12-19T05:33:38;9.90;99.90
22235;DHT22;11286;45.596;5.284;2022-12-19T05:36:05;9.90;99.90
22235;DHT22;11286;45.596;5.284;2022-12-19T05:38:30;10.00;99.90
22235;DHT22;11286;45.596;5.284;2022-12-19T05:40:56;10.10;99.90
22235;DHT22;11286;45.596;5.284;2022-12-19T05:43:22;10.20;99.90
22235;DHT22;11286;45.596;5.284;2022-12-19T05:45:48;10.30;99.90
22235;DHT22;11286;45.596;5.284;2022-12-19T05:48:13;10.30;99.90
22235;DHT22;11286;45.596;5.284;2022-12-19T05:50:39;10.30;99.90
22235;DHT22;11286;45.596;5.284;2022-12-19T05:53:05;10.70;99.90
22235;DHT22;11286;45.596;5.284;2022-12-19T05:55:31;10.30;99.90
22235;DHT22;11286;45.596;5.284;2022-12-19T05:57:56;10.40;99.90
22235;DHT22;11286;45.596;5.284;2022-12-19T06:00:22;10.10;99.90
22235;DHT22;11286;45.596;5.284;2022-12-19T06:02:48;9.90;99.90
22235;DHT22;11286;45.596;5.284;2022-12-19T06:05:13;10.00;99.90
22235;DHT22;11286;45.596;5.284;2022-12-19T06:07:39;10.10;99.90
22235;DHT22;11286;45.596;5.284;2022-12-19T06:10:05;10.10;99.90
22235;DHT22;11286;45.596;5.284;2022-12-19T06:12:31;10.20;99.90
22235;DHT22;11286;45.596;5.284;2022-12-19T06:14:57;10.00;99.90
22235;DHT22;11286;45.596;5.284;2022-12-19T06:17:22;10.20;99.90
22235;DHT22;11286;45.596;5.284;2022-12-19T06:19:48;10.00;99.90
22235;DHT22;11286;45.596;5.284;2022-12-19T06:22:14;10.30;99.90
22235;DHT22;11286;45.596;5.284;2022-12-19T06:24:39;9.80;99.90
22235;DHT22;11286;45.596;5.284;2022-12-19T06:27:05;9.90;99.90
22235;DHT22;11286;45.596;5.284;2022-12-19T06:29:31;9.90;99.90
22235;DHT22;11286;45.596;5.284;2022-12-19T06:31:56;9.90;99.90
22235;DHT22;11286;45.596;5.284;2022-12-19T06:34:22;9.80;99.90
22235;DHT22;11286;45.596;5.284;2022-12-19T06:36:47;9.90;99.90
22235;DHT22;11286;45.596;5.284;2022-12-19T06:39:14;9.80;99.90
22235;DHT22;11286;45.596;5.284;2022-12-19T06:41:40;10.10;99.90
22235;DHT22;11286;45.596;5.284;2022-12-19T06:44:24;10.00;99.90
22235;DHT22;11286;45.596;5.284;2022-12-19T06:46:51;9.40;99.90
22235;DHT22;11286;45.596;5.284;2022-12-19T06:49:17;9.20;99.90
22235;DHT22;11286;45.596;5.284;2022-12-19T06:51:43;9.20;99.90
22235;DHT22;11286;45.596;5.284;2022-12-19T06:54:13;9.00;99.90
22235;DHT22;11286;45.596;5.284;2022-12-19T06:56:41;8.90;99.90
22235;DHT22;11286;45.596;5.284;2022-12-19T06:59:08;8.70;99.90
22235;DHT22;11286;45.596;5.284;2022-12-19T07:06:51;8.70;99.90
22235;DHT22;11286;45.596;5.284;2022-12-19T07:09:17;8.80;99.90
22235;DHT22;11286;45.596;5.284;2022-12-19T07:11:43;9.10;99.90
22235;DHT22;11286;45.596;5.284;2022-12-19T07:14:08;9.30;99.90
22235;DHT22;11286;45.596;5.284;2022-12-19T07:16:34;9.40;99.90
22235;DHT22;11286;45.596;5.284;2022-12-19T07:19:00;9.60;99.90
22235;DHT22;11286;45.596;5.284;2022-12-19T07:21:25;9.90;99.90
22235;DHT22;11286;45.596;5.284;2022-12-19T07:23:51;9.60;99.90
22235;DHT22;11286;45.596;5.284;2022-12-19T07:26:17;9.70;99.90
22235;DHT22;11286;45.596;5.284;2022-12-19T07:28:42;9.80;99.90
22235;DHT22;11286;45.596;5.284;2022-12-19T07:31:09;9.90;99.90
22235;DHT22;11286;45.596;5.284;2022-12-19T07:33:34;10.00;99.90
22235;DHT22;11286;45.596;5.284;2022-12-19T07:36:00;10.20;99.90
22235;DHT22;11286;45.596;5.284;2022-12-19T07:38:26;10.20;99.90
22235;DHT22;11286;45.596;5.284;2022-12-19T07:40:51;10.50;99.90
22235;DHT22;11286;45.596;5.284;2022-12-19T07:43:17;10.40;99.90
22235;DHT22;11286;45.596;5.284;2022-12-19T07:45:42;10.50;99.90
22235;DHT22;11286;45.596;5.284;2022-12-19T07:48:08;10.60;99.90
22235;DHT22;11286;45.596;5.284;2022-12-19T07:50:34;10.60;99.90
22235;DHT22;11286;45.596;5.284;2022-12-19T07:53:00;10.70;99.90
22235;DHT22;11286;45.596;5.284;2022-12-19T07:55:26;10.80;99.90
22235;DHT22;11286;45.596;5.284;2022-12-19T07:57:52;11.00;99.90
22235;DHT22;11286;45.596;5.284;2022-12-19T08:00:18;11.40;99.90
22235;DHT22;11286;45.596;5.284;2022-12-19T08:02:44;11.90;99.90
22235;DHT22;11286;45.596;5.284;2022-12-19T08:05:09;11.80;99.90
22235;DHT22;11286;45.596;5.284;2022-12-19T08:07:36;11.50;99.90
22235;DHT22;11286;45.596;5.284;2022-12-19T08:10:01;11.00;99.90
22235;DHT22;11286;45.596;5.284;2022-12-19T08:12:27;10.60;99.90
22235;DHT22;11286;45.596;5.284;2022-12-19T08:14:52;10.50;99.90
22235;DHT22;11286;45.596;5.284;2022-12-19T08:17:18;10.80;99.90
22235;DHT22;11286;45.596;5.284;2022-12-19T08:19:44;10.60;99.90
22235;DHT22;11286;45.596;5.284;2022-12-19T08:22:09;10.60;99.90
22235;DHT22;11286;45.596;5.284;2022-12-19T08:24:35;10.70;99.90
22235;DHT22;11286;45.596;5.284;2022-12-19T08:27:01;11.00;99.90
22235;DHT22;11286;45.596;5.284;2022-12-19T08:29:26;11.20;99.90
22235;DHT22;11286;45.596;5.284;2022-12-19T08:31:52;10.70;99.90
22235;DHT22;11286;45.596;5.284;2022-12-19T08:34:18;10.70;99.90
22235;DHT22;11286;45.596;5.284;2022-12-19T08:36:43;10.60;99.90
22235;DHT22;11286;45.596;5.284;2022-12-19T08:39:09;10.90;99.90
22235;DHT22;11286;45.596;5.284;2022-12-19T08:41:35;11.00;99.90
22235;DHT22;11286;45.596;5.284;2022-12-19T08:44:01;11.70;99.90
22235;DHT22;11286;45.596;5.284;2022-12-19T08:46:27;12.20;99.90
22235;DHT22;11286;45.596;5.284;2022-12-19T08:48:52;12.00;99.90
22235;DHT22;11286;45.596;5.284;2022-12-19T08:51:18;12.20;99.90
22235;DHT22;11286;45.596;5.284;2022-12-19T08:53:45;12.50;99.90
22235;DHT22;11286;45.596;5.284;2022-12-19T08:56:13;12.70;99.90
22235;DHT22;11286;45.596;5.284;2022-12-19T08:58:39;12.90;99.90
22235;DHT22;11286;45.596;5.284;2022-12-19T09:01:07;13.10;99.90
22235;DHT22;11286;45.596;5.284;2022-12-19T09:03:34;13.10;99.90
22235;DHT22;11286;45.596;5.284;2022-12-19T09:06:05;12.90;99.90
22235;DHT22;11286;45.596;5.284;2022-12-19T09:08:32;12.70;99.90
22235;DHT22;11286;45.596;5.284;2022-12-19T09:11:03;12.70;99.90
22235;DHT22;11286;45.596;5.284;2022-12-19T09:13:30;12.90;99.90
22235;DHT22;11286;45.596;5.284;2022-12-19T09:16:19;13.00;99.90
22235;DHT22;11286;45.596;5.284;2022-12-19T09:18:47;13.10;99.90
22235;DHT22;11286;45.596;5.284;2022-12-19T09:21:13;13.00;99.90
22235;DHT22;11286;45.596;5.284;2022-12-19T09:23:40;13.20;99.90
22235;DHT22;11286;45.596;5.284;2022-12-19T09:26:08;13.40;99.90
22235;DHT22;11286;45.596;5.284;2022-12-19T09:28:36;13.50;99.90
22235;DHT22;11286;45.596;5.284;2022-12-19T09:31:09;13.60;99.90
22235;DHT22;11286;45.596;5.284;2022-12-19T09:33:35;13.80;99.90
22235;DHT22;11286;45.596;5.284;2022-12-19T09:36:01;13.80;99.90
22235;DHT22;11286;45.596;5.284;2022-12-19T09:38:29;13.90;99.90
22235;DHT22;11286;45.596;5.284;2022-12-19T09:46:49;14.40;99.90
22235;DHT22;11286;45.596;5.284;2022-12-19T09:49:20;14.50;99.90
22235;DHT22;11286;45.596;5.284;2022-12-19T09:51:52;14.60;99.90
22235;DHT22;11286;45.596;5.284;2022-12-19T09:54:37;14.80;99.90
22235;DHT22;11286;45.596;5.284;2022-12-19T09:57:13;14.90;99.90
22235;DHT22;11286;45.596;5.284;2022-12-19T09:59:44;15.10;99.90
22235;DHT22;11286;45.596;5.284;2022-12-19T10:05:13;15.10;99.90
22235;DHT22;11286;45.596;5.284;2022-12-19T10:07:39;15.60;99.90
22235;DHT22;11286;45.596;5.284;2022-12-19T10:10:05;15.50;99.90
22235;DHT22;11286;45.596;5.284;2022-12-19T10:15:36;15.90;99.90
22235;DHT22;11286;45.596;5.284;2022-12-19T10:18:12;16.30;99.90
22235;DHT22;11286;45.596;5.284;2022-12-19T10:21:11;16.30;99.90
22235;DHT22;11286;45.596;5.284;2022-12-19T10:34:01;16.30;99.90
22235;DHT22;11286;45.596;5.284;2022-12-19T10:36:37;17.60;99.90
22235;DHT22;11286;45.596;5.284;2022-12-19T10:39:30;17.20;99.90
22235;DHT22;11286;45.596;5.284;2022-12-19T10:42:06;17.20;99.90
22235;DHT22;11286;45.596;5.284;2022-12-19T10:44:37;17.50;99.90
22235;DHT22;11286;45.596;5.284;2022-12-19T10:47:03;17.00;99.90
22235;DHT22;11286;45.596;5.284;2022-12-19T10:49:28;16.60;99.90
22235;DHT22;11286;45.596;5.284;2022-12-19T10:54:43;16.80;99.90
22235;DHT22;11286;45.596;5.284;2022-12-19T10:57:25;16.40;99.90
22235;DHT22;11286;45.596;5.284;2022-12-19T11:00:13;17.20;99.90
22235;DHT22;11286;45.596;5.284;2022-12-19T11:02:44;17.60;99.90
22235;DHT22;11286;45.596;5.284;2022-12-19T11:05:38;19.80;99.90
22235;DHT22;11286;45.596;5.284;2022-12-19T11:12:59;20.10;99.90
22235;DHT22;11286;45.596;5.284;2022-12-19T11:15:25;19.70;99.90
22235;DHT22;11286;45.596;5.284;2022-12-19T11:17:50;19.90;99.90
22235;DHT22;11286;45.596;5.284;2022-12-19T11:20:22;20.40;99.90
22235;DHT22;11286;45.596;5.284;2022-12-19T11:22:58;19.70;99.90
22235;DHT22;11286;45.596;5.284;2022-12-19T11:25:37;20.00;99.90
22235;DHT22;11286;45.596;5.284;2022-12-19T11:28:34;19.20;99.90
22235;DHT22;11286;45.596;5.284;2022-12-19T11:33:30;19.10;99.90
22235;DHT22;11286;45.596;5.284;2022-12-19T11:35:57;18.70;99.90
22235;DHT22;11286;45.596;5.284;2022-12-19T11:38:45;18.80;99.90
22235;DHT22;11286;45.596;5.284;2022-12-19T11:41:41;18.40;99.90
22235;DHT22;11286;45.596;5.284;2022-12-19T11:44:21;18.70;99.90
22235;DHT22;11286;45.596;5.284;2022-12-19T11:47:02;19.00;99.90
22235;DHT22;11286;45.596;5.284;2022-12-19T11:50:03;18.00;99.90
22235;DHT22;11286;45.596;5.284;2022-12-19T11:55:24;17.90;99.90
22235;DHT22;11286;45.596;5.284;2022-12-19T11:57:51;17.60;99.90
22235;DHT22;11286;45.596;5.284;2022-12-19T12:00:19;17.50;99.90
22235;DHT22;11286;45.596;5.284;2022-12-19T12:03:14;17.90;99.90
22235;DHT22;11286;45.596;5.284;2022-12-19T12:05:47;18.90;99.90
22235;DHT22;11286;45.596;5.284;2022-12-19T12:14:13;19.30;99.90
22235;DHT22;11286;45.596;5.284;2022-12-19T12:30:20;18.80;99.90
22235;DHT22;11286;45.596;5.284;2022-12-19T12:33:07;19.60;99.90
22235;DHT22;11286;45.596;5.284;2022-12-19T12:35:38;19.30;99.90
22235;DHT22;11286;45.596;5.284;2022-12-19T12:38:28;20.60;99.90
22235;DHT22;11286;45.596;5.284;2022-12-19T12:44:09;20.80;99.90
22235;DHT22;11286;45.596;5.284;2022-12-19T12:46:41;21.40;99.90
22235;DHT22;11286;45.596;5.284;2022-12-19T12:52:04;19.50;99.90
22235;DHT22;11286;45.596;5.284;2022-12-19T12:54:35;19.20;99.90
22235;DHT22;11286;45.596;5.284;2022-12-19T12:57:02;19.40;99.90
22235;DHT22;11286;45.596;5.284;2022-12-19T12:59:28;19.70;99.90
22235;DHT22;11286;45.596;5.284;2022-12-19T13:01:59;19.00;99.90
22235;DHT22;11286;45.596;5.284;2022-12-19T13:04:30;19.10;99.90
22235;DHT22;11286;45.596;5.284;2022-12-19T13:09:40;20.70;99.90
22235;DHT22;11286;45.596;5.284;2022-12-19T13:23:02;21.90;99.90
22235;DHT22;11286;45.596;5.284;2022-12-19T13:30:32;20.50;99.90
22235;DHT22;11286;45.596;5.284;2022-12-19T13:41:02;21.20;99.90
22235;DHT22;11286;45.596;5.284;2022-12-19T13:43:57;21.20;99.90
22235;DHT22;11286;45.596;5.284;2022-12-19T13:46:43;21.80;99.90
22235;DHT22;11286;45.596;5.284;2022-12-19T13:49:14;20.60;99.90
22235;DHT22;11286;45.596;5.284;2022-12-19T13:51:45;21.50;99.90
22235;DHT22;11286;45.596;5.284;2022-12-19T13:54:26;22.00;99.90
22235;DHT22;11286;45.596;5.284;2022-12-19T13:56:53;21.20;99.90
22235;DHT22;11286;45.596;5.284;2022-12-19T13:59:22;21.00;99.90
22235;DHT22;11286;45.596;5.284;2022-12-19T14:01:50;20.10;99.90
22235;DHT22;11286;45.596;5.284;2022-12-19T14:04:29;20.90;99.90
22235;DHT22;11286;45.596;5.284;2022-12-19T14:07:05;21.40;99.90
22235;DHT22;11286;45.596;5.284;2022-12-19T14:09:38;20.80;99.90
22235;DHT22;11286;45.596;5.284;2022-12-19T14:12:10;20.20;99.90
22235;DHT22;11286;45.596;5.284;2022-12-19T14:14:56;20.30;99.90
22235;DHT22;11286;45.596;5.284;2022-12-19T14:17:46;20.20;99.90
22235;DHT22;11286;45.596;5.284;2022-12-19T14:20:19;19.10;99.90
22235;DHT22;11286;45.596;5.284;2022-12-19T14:22:45;19.40;99.90
22235;DHT22;11286;45.596;5.284;2022-12-19T14:25:10;20.00;99.90
22235;DHT22;11286;45.596;5.284;2022-12-19T14:27:50;19.90;99.90
22235;DHT22;11286;45.596;5.284;2022-12-19T14:30:23;19.40;99.90
22235;DHT22;11286;45.596;5.284;2022-12-19T14:32:52;19.80;99.90
22235;DHT22;11286;45.596;5.284;2022-12-19T14:35:21;18.80;99.90
22235;DHT22;11286;45.596;5.284;2022-12-19T14:37:49;18.10;99.90
22235;DHT22;11286;45.596;5.284;2022-12-19T14:40:27;18.30;99.90
22235;DHT22;11286;45.596;5.284;2022-12-19T14:43:03;18.00;99.90
22235;DHT22;11286;45.596;5.284;2022-12-19T14:45:51;18.20;99.90
22235;DHT22;11286;45.596;5.284;2022-12-19T14:50:49;17.20;99.90
22235;DHT22;11286;45.596;5.284;2022-12-19T14:53:19;17.30;99.90
22235;DHT22;11286;45.596;5.284;2022-12-19T14:55:46;16.60;99.90
22235;DHT22;11286;45.596;5.284;2022-12-19T14:58:17;16.50;99.90
22235;DHT22;11286;45.596;5.284;2022-12-19T15:00:49;16.30;99.90
22235;DHT22;11286;45.596;5.284;2022-12-19T15:03:23;16.20;99.90
22235;DHT22;11286;45.596;5.284;2022-12-19T15:05:50;16.20;99.90
22235;DHT22;11286;45.596;5.284;2022-12-19T15:08:29;16.10;99.90
22235;DHT22;11286;45.596;5.284;2022-12-19T15:10:59;15.90;99.90
22235;DHT22;11286;45.596;5.284;2022-12-19T15:13:54;15.70;99.90
22235;DHT22;11286;45.596;5.284;2022-12-19T15:16:28;15.50;99.90
22235;DHT22;11286;45.596;5.284;2022-12-19T15:18:59;15.50;99.90
22235;DHT22;11286;45.596;5.284;2022-12-19T15:21:26;15.30;99.90
22235;DHT22;11286;45.596;5.284;2022-12-19T15:23:52;15.20;99.90
22235;DHT22;11286;45.596;5.284;2022-12-19T15:26:32;15.20;99.90
22235;DHT22;11286;45.596;5.284;2022-12-19T15:28:59;15.30;99.90
22235;DHT22;11286;45.596;5.284;2022-12-19T15:31:35;15.20;99.90
22235;DHT22;11286;45.596;5.284;2022-12-19T15:34:29;15.20;99.90
22235;DHT22;11286;45.596;5.284;2022-12-19T15:36:56;14.90;99.90
22235;DHT22;11286;45.596;5.284;2022-12-19T15:39:23;14.80;99.90
22235;DHT22;11286;45.596;5.284;2022-12-19T15:41:53;14.80;99.90
22235;DHT22;11286;45.596;5.284;2022-12-19T15:44:40;14.70;99.90
22235;DHT22;11286;45.596;5.284;2022-12-19T15:47:18;14.60;99.90
22235;DHT22;11286;45.596;5.284;2022-12-19T15:49:46;14.50;99.90
22235;DHT22;11286;45.596;5.284;2022-12-19T15:52:18;14.50;99.90
22235;DHT22;11286;45.596;5.284;2022-12-19T15:54:44;14.40;99.90
22235;DHT22;11286;45.596;5.284;2022-12-19T15:59:47;14.20;99.90
22235;DHT22;11286;45.596;5.284;2022-12-19T16:02:16;14.10;99.90
22235;DHT22;11286;45.596;5.284;2022-12-19T16:04:44;14.10;99.90
22235;DHT22;11286;45.596;5.284;2022-12-19T16:07:17;14.10;99.90
22235;DHT22;11286;45.596;5.284;2022-12-19T16:09:43;14.00;99.90
22235;DHT22;11286;45.596;5.284;2022-12-19T16:12:17;14.00;99.90
22235;DHT22;11286;45.596;5.284;2022-12-19T16:14:44;13.90;99.90
22235;DHT22;11286;45.596;5.284;2022-12-19T16:17:21;13.90;99.90
22235;DHT22;11286;45.596;5.284;2022-12-19T16:19:47;13.90;99.90
22235;DHT22;11286;45.596;5.284;2022-12-19T16:22:27;13.80;99.90
22235;DHT22;11286;45.596;5.284;2022-12-19T16:24:53;13.90;99.90
22235;DHT22;11286;45.596;5.284;2022-12-19T16:27:25;13.80;99.90
22235;DHT22;11286;45.596;5.284;2022-12-19T16:29:52;13.80;99.90
22235;DHT22;11286;45.596;5.284;2022-12-19T16:32:19;13.80;99.90
22235;DHT22;11286;45.596;5.284;2022-12-19T16:34:47;13.80;99.90
22235;DHT22;11286;45.596;5.284;2022-12-19T16:37:12;13.90;99.90
22235;DHT22;11286;45.596;5.284;2022-12-19T16:39:38;13.80;99.90
22235;DHT22;11286;45.596;5.284;2022-12-19T16:42:04;13.70;99.90
22235;DHT22;11286;45.596;5.284;2022-12-19T16:44:32;13.70;99.90
22235;DHT22;11286;45.596;5.284;2022-12-19T16:46:59;13.70;99.90
22235;DHT22;11286;45.596;5.284;2022-12-19T16:49:24;13.70;99.90
22235;DHT22;11286;45.596;5.284;2022-12-19T16:51:52;13.70;99.90
22235;DHT22;11286;45.596;5.284;2022-12-19T16:54:18;13.70;99.90
22235;DHT22;11286;45.596;5.284;2022-12-19T16:56:49;13.70;99.90
22235;DHT22;11286;45.596;5.284;2022-12-19T16:59:26;13.70;99.90
22235;DHT22;11286;45.596;5.284;2022-12-19T17:01:55;13.60;99.90
22235;DHT22;11286;45.596;5.284;2022-12-19T17:04:23;13.60;99.90
22235;DHT22;11286;45.596;5.284;2022-12-19T17:06:49;13.50;99.90
22235;DHT22;11286;45.596;5.284;2022-12-19T17:09:23;13.50;99.90
22235;DHT22;11286;45.596;5.284;2022-12-19T17:11:55;13.40;99.90
22235;DHT22;11286;45.596;5.284;2022-12-19T17:14:25;13.30;99.90
22235;DHT22;11286;45.596;5.284;2022-12-19T17:16:53;13.30;99.90
22235;DHT22;11286;45.596;5.284;2022-12-19T17:19:23;13.40;99.90
22235;DHT22;11286;45.596;5.284;2022-12-19T17:21:50;13.30;99.90
22235;DHT22;11286;45.596;5.284;2022-12-19T17:24:16;13.30;99.90
22235;DHT22;11286;45.596;5.284;2022-12-19T17:26:42;13.20;99.90
22235;DHT22;11286;45.596;5.284;2022-12-19T17:29:08;13.20;99.90
22235;DHT22;11286;45.596;5.284;2022-12-19T17:31:34;13.30;99.90
22235;DHT22;11286;45.596;5.284;2022-12-19T17:34:12;13.40;99.90
22235;DHT22;11286;45.596;5.284;2022-12-19T17:36:39;13.30;99.90
22235;DHT22;11286;45.596;5.284;2022-12-19T17:41:42;13.30;99.90
22235;DHT22;11286;45.596;5.284;2022-12-19T17:44:07;13.20;99.90
22235;DHT22;11286;45.596;5.284;2022-12-19T17:46:35;13.20;99.90
22235;DHT22;11286;45.596;5.284;2022-12-19T17:49:01;13.00;99.90
22235;DHT22;11286;45.596;5.284;2022-12-19T17:51:27;13.10;99.90
22235;DHT22;11286;45.596;5.284;2022-12-19T17:53:52;13.10;99.90
22235;DHT22;11286;45.596;5.284;2022-12-19T17:56:19;13.00;99.90
22235;DHT22;11286;45.596;5.284;2022-12-19T17:58:45;13.00;99.90
22235;DHT22;11286;45.596;5.284;2022-12-19T18:01:20;12.90;99.90